Time;durP1;ratioP1;P1;durP2;ratioP2;P2;SDS_P1;SDS_P2;PMS_P1;PMS_P2;Temp;Humidity;BMP_temperature;BMP_pressure;BME280_temperature;BME280_humidity;BME280_pressure;Samples;Min_cycle;Max_cycle;Signal;HPM_P1;HPM_P2
2022/11/13 07:05:30;;;;;;;5.00;3.92;;;;;;;;;;5226682;23;20050;-84
2022/11/13 07:07:56;;;;;;;4.95;4.50;;;;;;;;;;4977142;28;20489;-84
2022/11/13 07:10:21;;;;;;;4.80;4.40;;;;;;;;;;4994515;28;20045;-84
2022/11/13 07:12:47;;;;;;;5.25;4.50;;;;;;;;;;4994377;28;20058;-82
2022/11/13 07:15:12;;;;;;;6.25;4.22;;;;;;;;;;4994355;28;20049;-82
2022/11/13 10:30:20;;;;;;;5.23;4.03;;;;;;;;;;4954120;28;20047;-80
2022/11/13 10:32:46;;;;;;;4.53;3.80;;;;;;;;;;4990559;28;20630;-81
2022/11/13 10:35:11;;;;;;;5.03;3.72;;;;;;;;;;4995007;28;20038;-81
2022/11/13 10:38:03;;;;;;;4.75;4.35;;;;;;;;;;5012851;28;20100;-81
2022/11/13 10:40:34;;;;;;;4.88;3.75;;;;;;;;;;5014702;28;20034;-79
2022/11/13 10:43:15;;;;;;;5.82;4.70;;;;;;;;;;5014651;28;20022;-78
2022/11/13 10:45:52;;;;;;;7.50;4.68;;;;;;;;;;5014472;28;20101;-80
2022/11/13 10:48:23;;;;;;;5.43;4.10;;;;;;;;;;5014624;28;20437;-80
2022/11/13 10:51:04;;;;;;;3.97;3.65;;;;;;;;;;5014759;28;20028;-81
2022/11/13 10:53:39;;;;;;;4.65;4.20;;;;;;;;;;4996863;28;20057;-79
2022/11/13 10:56:27;;;;;;;6.22;4.80;;;;;;;;;;5014452;28;20373;-77
2022/11/13 10:59:18;;;;;;;5.03;4.43;;;;;;;;;;4996635;28;20030;-78
2022/11/13 11:01:46;;;;;;;4.57;3.72;;;;;;;;;;5010390;28;20481;-79
2022/11/13 11:04:22;;;;;;;3.85;3.38;;;;;;;;;;5014080;28;20033;-79
2022/11/13 11:06:49;;;;;;;4.88;3.83;;;;;;;;;;4996261;28;20109;-79
2022/11/13 11:09:31;;;;;;;4.15;3.63;;;;;;;;;;5013982;28;20068;-79
2022/11/13 11:12:14;;;;;;;4.00;3.60;;;;;;;;;;5014079;28;20024;-81
2022/11/13 11:14:58;;;;;;;5.32;4.13;;;;;;;;;;5013776;28;20040;-80
2022/11/13 11:17:38;;;;;;;4.80;4.30;;;;;;;;;;5013309;28;20369;-77
2022/11/13 11:20:34;;;;;;;4.07;3.67;;;;;;;;;;5013591;28;20469;-79
2022/11/13 11:23:08;;;;;;;5.63;3.58;;;;;;;;;;5013747;28;20034;-82
2022/11/13 11:25:55;;;;;;;4.45;3.72;;;;;;;;;;5014114;28;20065;-82
2022/11/13 11:28:41;;;;;;;7.35;3.80;;;;;;;;;;5013801;28;20126;-87
2022/11/13 11:31:22;;;;;;;4.65;3.25;;;;;;;;;;5003727;28;20488;-84
2022/11/13 11:33:59;;;;;;;4.53;3.72;;;;;;;;;;5011924;28;20033;-81
2022/11/13 11:36:47;;;;;;;3.78;3.42;;;;;;;;;;5013681;28;20026;-79
2022/11/13 11:39:18;;;;;;;5.97;3.83;;;;;;;;;;5013746;28;20384;-78
2022/11/13 11:42:18;;;;;;;3.20;2.92;;;;;;;;;;5013418;28;20428;-77
2022/11/13 11:44:57;;;;;;;4.47;3.70;;;;;;;;;;5013614;28;20366;-78
2022/11/13 11:47:22;;;;;;;3.88;3.58;;;;;;;;;;5013514;28;20101;-78
2022/11/13 11:49:48;;;;;;;3.78;3.47;;;;;;;;;;5013628;28;20084;-79
2022/11/13 11:52:32;;;;;;;3.85;3.47;;;;;;;;;;5013607;28;20033;-79
2022/11/13 11:55:38;;;;;;;7.15;5.60;;;;;;;;;;5013738;28;20112;-79
2022/11/13 11:58:37;;;;;;;4.45;3.95;;;;;;;;;;5013412;28;20022;-79
2022/11/13 12:01:09;;;;;;;4.23;3.73;;;;;;;;;;5013541;28;20037;-85
2022/11/13 12:04:05;;;;;;;5.10;3.22;;;;;;;;;;5013512;28;20030;-86
2022/11/13 12:06:58;;;;;;;3.78;3.22;;;;;;;;;;5013713;28;20025;-86
2022/11/13 12:09:42;;;;;;;4.05;3.40;;;;;;;;;;5002668;28;20517;-87
2022/11/13 12:12:24;;;;;;;3.80;3.42;;;;;;;;;;5013752;28;20048;-85
2022/11/13 12:14:58;;;;;;;3.80;3.38;;;;;;;;;;5013656;28;20413;-82
2022/11/13 12:18:01;;;;;;;3.20;2.95;;;;;;;;;;5013247;28;20026;-79
2022/11/13 12:20:33;;;;;;;3.92;3.45;;;;;;;;;;5000458;28;20109;-81
2022/11/13 12:23:14;;;;;;;4.00;2.92;;;;;;;;;;5013343;28;20029;-80
2022/11/13 12:25:47;;;;;;;4.22;3.40;;;;;;;;;;5013123;28;20022;-78
2022/11/13 12:28:43;;;;;;;4.65;3.40;;;;;;;;;;5013176;28;20030;-79
2022/11/13 12:31:27;;;;;;;3.70;3.35;;;;;;;;;;5013351;28;20052;-82
2022/11/13 12:34:08;;;;;;;3.75;3.35;;;;;;;;;;5013365;28;20052;-81
2022/11/13 12:36:34;;;;;;;3.70;3.17;;;;;;;;;;5013110;28;20040;-76
2022/11/13 12:39:26;;;;;;;3.28;3.08;;;;;;;;;;5013041;28;20053;-78
2022/11/13 12:42:01;;;;;;;3.00;2.80;;;;;;;;;;5013170;28;20047;-80
2022/11/13 12:44:28;;;;;;;3.42;3.13;;;;;;;;;;5013151;28;20036;-84
2022/11/13 12:46:59;;;;;;;4.03;3.22;;;;;;;;;;5012960;28;20101;-82
2022/11/13 12:49:34;;;;;;;3.45;3.00;;;;;;;;;;5014061;28;20041;-78
2022/11/13 12:52:16;;;;;;;3.20;2.90;;;;;;;;;;5016724;28;20034;-79
2022/11/13 12:54:42;;;;;;;4.95;3.35;;;;;;;;;;5016345;28;20427;-78
2022/11/13 12:57:14;;;;;;;3.13;2.83;;;;;;;;;;5016897;28;20033;-80
2022/11/13 12:59:49;;;;;;;4.50;3.40;;;;;;;;;;5016329;28;20033;-79
2022/11/13 13:02:36;;;;;;;3.22;2.92;;;;;;;;;;5016389;28;20032;-80
2022/11/13 13:05:23;;;;;;;3.35;2.92;;;;;;;;;;5016253;28;20485;-78
2022/11/13 13:08:01;;;;;;;6.05;3.83;;;;;;;;;;5016470;28;20026;-80
2022/11/13 13:10:36;;;;;;;4.15;2.80;;;;;;;;;;5016192;28;20109;-82
2022/11/13 13:13:19;;;;;;;6.13;4.65;;;;;;;;;;5016140;28;20026;-78
2022/11/13 13:15:56;;;;;;;4.75;3.38;;;;;;;;;;5015969;28;20034;-79
2022/11/13 13:18:34;;;;;;;3.40;3.10;;;;;;;;;;5016167;28;20038;-77
2022/11/13 13:21:12;;;;;;;4.55;3.55;;;;;;;;;;5016171;28;20497;-83
2022/11/13 13:23:43;;;;;;;3.70;3.30;;;;;;;;;;4999409;28;20032;-78
2022/11/13 13:26:16;;;;;;;3.75;2.90;;;;;;;;;;5016098;28;20021;-79
2022/11/13 13:28:48;;;;;;;5.85;2.83;;;;;;;;;;5016023;28;20037;-79
2022/11/13 13:31:31;;;;;;;2.85;2.65;;;;;;;;;;4998217;28;20052;-83
2022/11/13 13:34:12;;;;;;;3.63;3.30;;;;;;;;;;4998199;28;20465;-81
2022/11/13 13:37:07;;;;;;;3.78;3.13;;;;;;;;;;5016297;28;20109;-78
2022/11/13 13:39:54;;;;;;;3.30;3.00;;;;;;;;;;5004215;28;20038;-85
2022/11/13 13:42:48;;;;;;;12.30;8.60;;;;;;;;;;4996222;28;20034;-85
2022/11/13 13:45:50;;;;;;;3.80;3.47;;;;;;;;;;4996369;28;20374;-84
2022/11/13 13:48:20;;;;;;;4.10;3.03;;;;;;;;;;4996023;28;20030;-85
2022/11/13 13:50:48;;;;;;;4.78;4.28;;;;;;;;;;5008023;28;20045;-82
2022/11/13 13:53:17;;;;;;;6.47;5.28;;;;;;;;;;5015447;28;20392;-82
2022/11/13 13:55:49;;;;;;;43.00;30.52;;;;;;;;;;5004381;28;20076;-84
2022/11/13 13:58:18;;;;;;;30.75;23.58;;;;;;;;;;5010261;28;20100;-85
2022/11/13 14:00:57;;;;;;;7.13;4.97;;;;;;;;;;4997108;28;20026;-83
2022/11/13 14:03:24;;;;;;;8.60;7.25;;;;;;;;;;4999326;28;20038;-82
2022/11/13 14:05:49;;;;;;;25.70;23.80;;;;;;;;;;5015149;28;20033;-83
2022/11/13 14:08:17;;;;;;;8.15;7.45;;;;;;;;;;5014977;28;20053;-85
2022/11/13 14:10:45;;;;;;;5.75;5.20;;;;;;;;;;4997390;28;20061;-85
2022/11/13 14:13:21;;;;;;;4.40;4.00;;;;;;;;;;5000662;28;20049;-84
2022/11/13 14:15:47;;;;;;;3.40;3.10;;;;;;;;;;4995209;28;20106;-83
2022/11/13 14:18:17;;;;;;;4.45;3.70;;;;;;;;;;4995025;28;20404;-88
2022/11/13 14:20:53;;;;;;;4.50;3.05;;;;;;;;;;4995517;28;20027;-84
2022/11/13 14:23:28;;;;;;;3.45;3.15;;;;;;;;;;4995090;28;20022;-81
2022/11/13 14:25:55;;;;;;;4.93;3.17;;;;;;;;;;4995179;28;20152;-83
2022/11/13 14:28:23;;;;;;;3.53;3.17;;;;;;;;;;4993370;28;20030;-81
2022/11/13 14:31:06;;;;;;;3.92;3.28;;;;;;;;;;5014515;28;20389;-88
2022/11/13 14:33:37;;;;;;;4.05;3.70;;;;;;;;;;4995078;28;20026;-88
2022/11/13 14:36:03;;;;;;;4.13;3.13;;;;;;;;;;5003200;28;20528;-81
2022/11/13 14:38:35;;;;;;;3.40;3.10;;;;;;;;;;4995649;28;20029;-85
2022/11/13 14:41:02;;;;;;;3.97;3.30;;;;;;;;;;5013789;28;20108;-83
2022/11/13 14:43:30;;;;;;;5.63;3.47;;;;;;;;;;5014565;28;20109;-85
2022/11/13 14:46:01;;;;;;;4.93;3.55;;;;;;;;;;5014366;28;20045;-81
2022/11/13 14:48:33;;;;;;;3.58;3.10;;;;;;;;;;5014790;28;20022;-80
2022/11/13 14:51:01;;;;;;;4.43;3.55;;;;;;;;;;5014585;28;20022;-83
2022/11/13 14:53:34;;;;;;;4.38;3.42;;;;;;;;;;5014549;28;20025;-81
2022/11/13 14:56:04;;;;;;;3.38;3.08;;;;;;;;;;5014518;28;20465;-79
2022/11/13 14:58:33;;;;;;;4.32;3.88;;;;;;;;;;5014464;28;20432;-87
2022/11/13 15:01:15;;;;;;;4.20;3.70;;;;;;;;;;5014271;28;20036;-81
2022/11/13 15:03:42;;;;;;;5.22;3.60;;;;;;;;;;5014505;28;20109;-78
2022/11/13 15:06:13;;;;;;;3.95;3.55;;;;;;;;;;5014191;28;20500;-81
2022/11/13 15:08:38;;;;;;;6.75;3.45;;;;;;;;;;5008520;28;20034;-82
2022/11/13 15:11:04;;;;;;;4.80;3.80;;;;;;;;;;5003324;28;20088;-81
2022/11/13 15:13:29;;;;;;;5.18;3.92;;;;;;;;;;5000717;28;20069;-80
2022/11/13 15:15:55;;;;;;;4.32;3.72;;;;;;;;;;4994466;28;20604;-86
2022/11/13 15:18:20;;;;;;;4.35;3.63;;;;;;;;;;4994311;28;20026;-79
2022/11/13 15:20:46;;;;;;;4.75;3.75;;;;;;;;;;4995352;28;20022;-85
2022/11/13 15:23:14;;;;;;;4.28;3.88;;;;;;;;;;4999489;28;20026;-82
2022/11/13 15:25:40;;;;;;;4.45;3.88;;;;;;;;;;4994285;28;20474;-79
2022/11/13 15:28:05;;;;;;;4.35;3.83;;;;;;;;;;4994307;28;20030;-80
2022/11/13 15:30:31;;;;;;;4.90;4.20;;;;;;;;;;4993991;28;20053;-82
2022/11/13 15:32:58;;;;;;;4.32;3.92;;;;;;;;;;4994210;28;20486;-82
2022/11/13 15:35:23;;;;;;;5.05;3.83;;;;;;;;;;4993933;28;20101;-82
2022/11/13 15:37:49;;;;;;;5.03;4.30;;;;;;;;;;4994119;28;20405;-82
2022/11/13 15:40:15;;;;;;;7.03;4.95;;;;;;;;;;4994315;28;20018;-83
2022/11/13 15:42:42;;;;;;;4.80;3.80;;;;;;;;;;4994084;28;20053;-83
2022/11/13 15:45:13;;;;;;;4.57;4.18;;;;;;;;;;4994057;28;20062;-79
2022/11/13 15:47:38;;;;;;;6.63;4.55;;;;;;;;;;4994063;28;20022;-81
2022/11/13 15:50:05;;;;;;;5.20;4.63;;;;;;;;;;4994067;28;20033;-81
2022/11/13 15:52:34;;;;;;;5.47;4.70;;;;;;;;;;4994179;28;20030;-80
2022/11/13 15:55:02;;;;;;;5.65;5.03;;;;;;;;;;4993999;28;20116;-79
2022/11/13 15:57:29;;;;;;;5.35;4.85;;;;;;;;;;4993800;28;20023;-80
2022/11/13 15:59:54;;;;;;;6.03;4.85;;;;;;;;;;4976566;28;20026;-83
2022/11/13 16:02:20;;;;;;;5.75;4.28;;;;;;;;;;5012011;28;20037;-79
2022/11/13 16:04:46;;;;;;;5.15;4.65;;;;;;;;;;5012150;28;20022;-80
2022/11/13 16:07:30;;;;;;;6.28;4.80;;;;;;;;;;4993896;28;20065;-80
2022/11/13 16:09:55;;;;;;;6.95;4.50;;;;;;;;;;4993982;28;20026;-82
2022/11/13 16:12:21;;;;;;;6.00;5.40;;;;;;;;;;4993832;28;20033;-83
2022/11/13 16:14:46;;;;;;;6.63;4.70;;;;;;;;;;4994038;28;20104;-80
2022/11/13 16:17:18;;;;;;;5.07;4.57;;;;;;;;;;4993756;28;20117;-81
2022/11/13 16:19:45;;;;;;;5.22;4.63;;;;;;;;;;4993778;28;20073;-81
2022/11/13 16:22:17;;;;;;;5.00;4.50;;;;;;;;;;4993894;28;20054;-84
2022/11/13 16:24:43;;;;;;;4.97;4.45;;;;;;;;;;5000249;28;20551;-85
2022/11/13 16:27:13;;;;;;;6.97;5.30;;;;;;;;;;4996935;28;20113;-85
2022/11/13 16:29:38;;;;;;;5.50;4.75;;;;;;;;;;4996234;28;20712;-83
2022/11/13 16:32:04;;;;;;;6.88;5.35;;;;;;;;;;5007371;28;20026;-92
2022/11/13 16:34:29;;;;;;;7.35;5.38;;;;;;;;;;4998489;28;20063;-89
2022/11/13 16:36:54;;;;;;;6.63;5.47;;;;;;;;;;5006277;28;20029;-88
2022/11/13 16:39:20;;;;;;;6.38;5.60;;;;;;;;;;5009312;28;20080;-89
2022/11/13 16:41:45;;;;;;;7.30;6.57;;;;;;;;;;4997939;28;20030;-90
2022/11/13 16:44:11;;;;;;;7.90;6.30;;;;;;;;;;5003086;28;20026;-86
2022/11/13 16:46:40;;;;;;;6.57;5.47;;;;;;;;;;5016693;28;20036;-83
2022/11/13 16:49:11;;;;;;;6.50;5.05;;;;;;;;;;5016795;28;20402;-82
2022/11/13 16:51:37;;;;;;;6.05;5.18;;;;;;;;;;5017042;28;20030;-90
2022/11/13 16:54:02;;;;;;;7.15;5.60;;;;;;;;;;5017039;28;20028;-89
2022/11/13 16:56:29;;;;;;;9.27;6.40;;;;;;;;;;5017453;28;20036;-91
2022/11/13 16:58:55;;;;;;;5.70;5.10;;;;;;;;;;5016318;28;20476;-83
2022/11/13 17:01:23;;;;;;;5.70;5.13;;;;;;;;;;5016494;28;20030;-83
2022/11/13 17:03:50;;;;;;;5.80;4.47;;;;;;;;;;5016476;28;20076;-82
2022/11/13 17:06:20;;;;;;;6.38;5.60;;;;;;;;;;5016269;28;20021;-83
2022/11/13 17:08:50;;;;;;;8.32;5.20;;;;;;;;;;5016713;28;20040;-87
2022/11/13 17:11:15;;;;;;;6.10;5.18;;;;;;;;;;5016990;28;20100;-86
2022/11/13 17:13:41;;;;;;;6.13;5.53;;;;;;;;;;5016436;28;20438;-84
2022/11/13 17:16:12;;;;;;;7.22;6.15;;;;;;;;;;5021852;23;20062;-87
2022/11/13 17:18:37;;;;;;;6.53;5.65;;;;;;;;;;4998080;28;20100;-83
2022/11/13 17:21:03;;;;;;;10.82;7.70;;;;;;;;;;4996602;28;20425;-83
2022/11/13 17:23:28;;;;;;;10.32;9.30;;;;;;;;;;4996937;28;20034;-88
2022/11/13 17:25:54;;;;;;;8.82;7.93;;;;;;;;;;4992361;28;20482;-91
2022/11/13 17:28:19;;;;;;;10.77;8.15;;;;;;;;;;4977000;28;20034;-83
2022/11/13 17:30:45;;;;;;;7.93;7.13;;;;;;;;;;4978537;28;20025;-92
2022/11/13 17:35:51;;;;;;;7.43;6.60;;;;;;;;;;5018495;23;20056;-91
2022/11/13 17:38:17;;;;;;;8.23;6.18;;;;;;;;;;5021193;23;20489;-92
2022/11/13 17:40:42;;;;;;;7.15;6.03;;;;;;;;;;4999113;28;20116;-91
2022/11/13 17:43:08;;;;;;;6.13;5.47;;;;;;;;;;5000265;28;20022;-90
2022/11/13 17:45:36;;;;;;;7.50;6.70;;;;;;;;;;5020436;28;20500;-91
2022/11/13 17:48:02;;;;;;;7.07;6.38;;;;;;;;;;5000354;28;20035;-92
2022/11/13 17:50:27;;;;;;;8.43;6.90;;;;;;;;;;4999723;28;20029;-93
2022/11/13 17:53:16;;;;;;;7.72;6.93;;;;;;;;;;5021715;23;20058;-87
2022/11/13 17:55:41;;;;;;;10.38;8.55;;;;;;;;;;5016028;28;20128;-88
2022/11/13 17:58:07;;;;;;;11.95;8.52;;;;;;;;;;4996953;28;20113;-84
2022/11/13 18:00:32;;;;;;;9.30;8.23;;;;;;;;;;4996262;28;20026;-91
2022/11/13 18:02:58;;;;;;;9.55;7.63;;;;;;;;;;4995819;28;20061;-83
2022/11/13 18:05:23;;;;;;;9.55;7.95;;;;;;;;;;4996100;28;20358;-84
2022/11/13 18:07:48;;;;;;;10.10;7.18;;;;;;;;;;4996712;28;20030;-91
2022/11/13 18:10:14;;;;;;;8.10;7.00;;;;;;;;;;4980941;28;20488;-86
2022/11/13 18:12:39;;;;;;;9.07;8.00;;;;;;;;;;4979723;28;20465;-90
2022/11/13 18:15:05;;;;;;;10.07;7.60;;;;;;;;;;4978936;28;20058;-88
2022/11/13 18:17:31;;;;;;;8.65;7.60;;;;;;;;;;4979600;28;20026;-93
2022/11/13 18:19:56;;;;;;;12.43;8.15;;;;;;;;;;4995266;28;20478;-89
2022/11/13 18:22:21;;;;;;;9.70;7.47;;;;;;;;;;4993577;28;20076;-84
2022/11/13 18:24:47;;;;;;;8.15;7.35;;;;;;;;;;4986346;28;20035;-84
2022/11/13 18:27:12;;;;;;;8.43;7.18;;;;;;;;;;4984159;28;20031;-87
2022/11/13 18:29:40;;;;;;;8.38;6.85;;;;;;;;;;4995049;28;20037;-87
2022/11/13 18:32:06;;;;;;;9.45;7.65;;;;;;;;;;4989806;28;20029;-91
2022/11/13 18:34:31;;;;;;;8.35;7.43;;;;;;;;;;4984679;28;20031;-88
2022/11/13 18:36:57;;;;;;;7.88;7.07;;;;;;;;;;4976305;28;20098;-89
2022/11/13 18:39:23;;;;;;;8.35;6.57;;;;;;;;;;4975934;28;20027;-84
2022/11/13 18:41:49;;;;;;;8.90;7.47;;;;;;;;;;4982781;28;20053;-83
2022/11/13 18:44:14;;;;;;;8.68;7.70;;;;;;;;;;4987089;28;20073;-87
2022/11/13 18:46:40;;;;;;;12.35;7.22;;;;;;;;;;4987777;28;20411;-83
2022/11/13 18:49:06;;;;;;;8.48;7.03;;;;;;;;;;4959129;28;20038;-85
2022/11/13 18:51:34;;;;;;;8.07;7.05;;;;;;;;;;4958325;28;20085;-84
2022/11/13 18:54:01;;;;;;;9.07;8.02;;;;;;;;;;4975705;28;20059;-84
2022/11/13 18:56:29;;;;;;;7.65;6.78;;;;;;;;;;4975141;28;20217;-85
2022/11/13 18:58:55;;;;;;;8.70;7.10;;;;;;;;;;4975279;28;20031;-85
2022/11/13 19:01:27;;;;;;;8.60;7.55;;;;;;;;;;4975308;28;20031;-85
2022/11/13 19:03:54;;;;;;;8.90;7.63;;;;;;;;;;4975347;28;20038;-84
2022/11/13 19:06:21;;;;;;;7.55;6.85;;;;;;;;;;4975166;28;20485;-85
2022/11/13 19:08:53;;;;;;;11.52;8.98;;;;;;;;;;4978531;28;20027;-84
2022/11/13 19:11:18;;;;;;;13.30;9.77;;;;;;;;;;4975069;28;20370;-88
2022/11/13 19:13:45;;;;;;;13.40;10.38;;;;;;;;;;4975011;28;20033;-85
2022/11/13 19:16:14;;;;;;;11.85;9.98;;;;;;;;;;4976372;28;20058;-93
2022/11/13 19:18:42;;;;;;;13.48;10.45;;;;;;;;;;4976366;28;20034;-84
2022/11/13 19:21:13;;;;;;;12.45;9.57;;;;;;;;;;4976306;28;20034;-84
2022/11/13 19:23:38;;;;;;;10.98;9.88;;;;;;;;;;4958584;28;20023;-82
2022/11/13 19:26:04;;;;;;;11.20;8.75;;;;;;;;;;4974655;28;20041;-84
2022/11/13 19:28:30;;;;;;;10.02;8.43;;;;;;;;;;4974893;28;20081;-83
2022/11/13 19:30:56;;;;;;;11.10;8.65;;;;;;;;;;4975246;28;20038;-84
2022/11/13 19:33:22;;;;;;;11.23;9.05;;;;;;;;;;4974952;28;20348;-83
2022/11/13 19:35:49;;;;;;;11.05;8.93;;;;;;;;;;4974745;28;20034;-84
2022/11/13 19:38:14;;;;;;;15.63;11.52;;;;;;;;;;4974562;28;20027;-86
2022/11/13 19:40:44;;;;;;;18.08;15.13;;;;;;;;;;4974674;28;20027;-83
2022/11/13 19:43:09;;;;;;;19.38;14.55;;;;;;;;;;4975075;28;20102;-83
2022/11/13 19:45:35;;;;;;;16.67;14.05;;;;;;;;;;4974548;28;20110;-83
2022/11/13 19:48:00;;;;;;;16.40;11.80;;;;;;;;;;4974842;28;20401;-83
2022/11/13 19:50:25;;;;;;;14.82;11.40;;;;;;;;;;4974730;28;20037;-82
2022/11/13 19:52:52;;;;;;;10.95;8.75;;;;;;;;;;4974557;28;20038;-83
2022/11/13 19:55:17;;;;;;;11.77;9.40;;;;;;;;;;4974583;28;20034;-84
2022/11/13 19:57:43;;;;;;;11.60;9.82;;;;;;;;;;4975043;28;20106;-85
2022/11/13 20:00:09;;;;;;;12.70;11.23;;;;;;;;;;4978397;28;20026;-84
2022/11/13 20:02:34;;;;;;;12.68;10.25;;;;;;;;;;4978814;28;20030;-85
2022/11/13 20:05:00;;;;;;;12.45;10.75;;;;;;;;;;4978492;28;20074;-85
2022/11/13 20:07:25;;;;;;;13.10;10.85;;;;;;;;;;4978293;28;20066;-87
2022/11/13 20:09:50;;;;;;;15.88;9.52;;;;;;;;;;4978567;28;20113;-85
2022/11/13 20:12:16;;;;;;;12.65;9.55;;;;;;;;;;4978473;28;20110;-86
2022/11/13 20:14:41;;;;;;;10.43;8.63;;;;;;;;;;4978259;28;20023;-86
2022/11/13 20:17:07;;;;;;;10.35;8.57;;;;;;;;;;4960874;28;20027;-85
2022/11/13 20:19:32;;;;;;;10.60;8.55;;;;;;;;;;4978203;28;20162;-85
2022/11/13 20:21:58;;;;;;;9.98;8.43;;;;;;;;;;4978322;28;20073;-85
2022/11/13 20:24:24;;;;;;;12.32;8.73;;;;;;;;;;4978299;28;20053;-85
2022/11/13 20:26:49;;;;;;;9.77;8.18;;;;;;;;;;4978041;28;20026;-89
2022/11/13 20:29:15;;;;;;;8.65;7.75;;;;;;;;;;4960728;28;20030;-85
2022/11/13 20:31:40;;;;;;;16.48;11.43;;;;;;;;;;4960581;28;20181;-85
2022/11/13 20:34:05;;;;;;;21.48;12.10;;;;;;;;;;4978014;28;20110;-86
2022/11/13 20:36:31;;;;;;;19.52;12.90;;;;;;;;;;4978093;28;20033;-86
2022/11/13 20:38:56;;;;;;;16.83;12.07;;;;;;;;;;4977752;28;20027;-87
2022/11/13 20:41:23;;;;;;;19.17;12.40;;;;;;;;;;4960832;28;20022;-86
2022/11/13 20:43:50;;;;;;;16.70;11.52;;;;;;;;;;4977844;28;20031;-88
2022/11/13 20:46:17;;;;;;;14.52;11.13;;;;;;;;;;4977781;28;20546;-86
2022/11/13 20:48:44;;;;;;;14.65;11.07;;;;;;;;;;4960438;28;20039;-86
2022/11/13 20:51:16;;;;;;;16.33;10.82;;;;;;;;;;4977713;28;20026;-88
2022/11/13 20:53:42;;;;;;;12.93;11.30;;;;;;;;;;4977327;28;20047;-87
2022/11/13 20:56:07;;;;;;;13.07;10.45;;;;;;;;;;4977461;28;20030;-84
2022/11/13 20:58:33;;;;;;;15.52;11.27;;;;;;;;;;4977228;28;20055;-86
2022/11/13 21:01:04;;;;;;;13.65;10.88;;;;;;;;;;4977649;28;20430;-86
2022/11/13 21:03:30;;;;;;;15.98;11.48;;;;;;;;;;4977295;28;20396;-84
2022/11/13 21:05:55;;;;;;;14.15;10.48;;;;;;;;;;4977586;28;20030;-84
2022/11/13 21:08:21;;;;;;;15.73;11.45;;;;;;;;;;4977235;28;20038;-83
2022/11/13 21:10:46;;;;;;;14.23;11.38;;;;;;;;;;4976478;28;20418;-84
2022/11/13 21:13:11;;;;;;;14.50;11.75;;;;;;;;;;4977105;28;20027;-85
2022/11/13 21:15:37;;;;;;;15.57;11.25;;;;;;;;;;4977087;28;20470;-85
2022/11/13 21:18:03;;;;;;;14.82;11.25;;;;;;;;;;4977184;28;20032;-86
2022/11/13 21:20:28;;;;;;;14.60;11.20;;;;;;;;;;4977044;28;20071;-84
2022/11/13 21:22:54;;;;;;;14.07;11.25;;;;;;;;;;4977264;28;20417;-86
2022/11/13 21:25:21;;;;;;;14.35;11.60;;;;;;;;;;4977169;28;20066;-85
2022/11/13 21:27:46;;;;;;;15.20;12.63;;;;;;;;;;4976852;28;20378;-87
2022/11/13 21:30:12;;;;;;;13.88;12.20;;;;;;;;;;4976877;28;20023;-85
2022/11/13 21:32:38;;;;;;;16.58;12.45;;;;;;;;;;4959597;28;20031;-85
2022/11/13 21:35:04;;;;;;;17.60;12.95;;;;;;;;;;4976920;28;20058;-86
2022/11/13 21:37:32;;;;;;;14.50;11.32;;;;;;;;;;4976733;28;20109;-85
2022/11/13 21:39:57;;;;;;;13.45;11.15;;;;;;;;;;4976689;28;20027;-85
2022/11/13 21:42:23;;;;;;;13.07;10.77;;;;;;;;;;4976714;28;20029;-84
2022/11/13 21:44:48;;;;;;;14.57;11.45;;;;;;;;;;4976722;28;20031;-85
2022/11/13 21:47:14;;;;;;;16.98;12.95;;;;;;;;;;4976440;28;20050;-85
2022/11/13 21:49:39;;;;;;;18.30;12.30;;;;;;;;;;4977010;28;20373;-85
2022/11/13 21:52:04;;;;;;;18.75;12.93;;;;;;;;;;4976520;28;20043;-85
2022/11/13 21:54:30;;;;;;;16.42;12.82;;;;;;;;;;4976525;28;20027;-84
2022/11/13 21:56:55;;;;;;;21.70;14.82;;;;;;;;;;4976264;28;20035;-85
2022/11/13 21:59:21;;;;;;;23.83;15.88;;;;;;;;;;4976352;28;20168;-84
2022/11/13 22:01:46;;;;;;;23.92;16.33;;;;;;;;;;4976378;28;20092;-84
2022/11/13 22:04:11;;;;;;;21.25;15.40;;;;;;;;;;4976414;28;20517;-86
2022/11/13 22:06:38;;;;;;;21.05;13.57;;;;;;;;;;4976329;28;20038;-89
2022/11/13 22:09:05;;;;;;;18.30;14.05;;;;;;;;;;4976835;28;20023;-89
2022/11/13 22:11:34;;;;;;;19.75;14.30;;;;;;;;;;4976749;28;20023;-85
2022/11/13 22:13:59;;;;;;;17.25;13.80;;;;;;;;;;4976260;28;20034;-85
2022/11/13 22:16:27;;;;;;;18.67;14.13;;;;;;;;;;4958565;28;20023;-87
2022/11/13 22:18:54;;;;;;;21.77;14.35;;;;;;;;;;4976157;28;20039;-88
2022/11/13 22:21:21;;;;;;;17.83;14.32;;;;;;;;;;4975893;28;20027;-88
2022/11/13 22:23:46;;;;;;;18.77;14.38;;;;;;;;;;4975268;28;20031;-85
2022/11/13 22:26:14;;;;;;;18.80;14.18;;;;;;;;;;4976207;28;20381;-89
2022/11/13 22:28:41;;;;;;;20.60;14.30;;;;;;;;;;4975924;28;20058;-88
2022/11/13 22:31:07;;;;;;;17.77;13.38;;;;;;;;;;4976281;28;20130;-85
2022/11/13 22:33:34;;;;;;;20.80;14.45;;;;;;;;;;4975769;28;20474;-85
2022/11/13 22:36:05;;;;;;;19.38;15.40;;;;;;;;;;4958711;28;20027;-88
2022/11/13 22:38:34;;;;;;;19.20;14.07;;;;;;;;;;4975724;28;20479;-86
2022/11/13 22:41:05;;;;;;;19.42;15.07;;;;;;;;;;4958248;28;20023;-87
2022/11/13 22:43:32;;;;;;;19.33;14.48;;;;;;;;;;4975994;28;20041;-87
2022/11/13 22:46:06;;;;;;;20.55;15.00;;;;;;;;;;4975792;28;20027;-86
